createdAt,value
2018-12-04T00:00:28.762Z,0.73
2018-12-04T00:02:55.816Z,0.20
2018-12-04T00:05:22.564Z,0.57
2018-12-04T00:07:49.295Z,1.10
2018-12-04T00:10:16.024Z,0.60
2018-12-04T00:12:42.840Z,0.37
2018-12-04T00:15:09.923Z,0.50
2018-12-04T00:17:36.835Z,0.70
2018-12-04T00:20:03.603Z,0.30
2018-12-04T00:22:30.412Z,0.30
2018-12-04T00:24:57.161Z,0.30
2018-12-04T00:27:23.843Z,0.40
2018-12-04T00:29:50.569Z,0.77
2018-12-04T00:32:17.382Z,0.30
2018-12-04T00:34:44.280Z,0.80
2018-12-04T00:37:17.375Z,0.70
2018-12-04T00:39:44.105Z,0.37
2018-12-04T00:42:11.038Z,0.60
2018-12-04T00:44:37.776Z,0.40
2018-12-04T00:47:04.558Z,0.60
2018-12-04T00:49:31.264Z,0.50
2018-12-04T00:51:58.242Z,0.40
2018-12-04T00:54:25.003Z,0.40
2018-12-04T00:56:51.831Z,0.30
2018-12-04T00:59:18.786Z,0.53
2018-12-04T01:01:45.618Z,0.30
2018-12-04T01:04:12.364Z,0.40
2018-12-04T01:06:39.116Z,0.43
2018-12-04T01:09:05.822Z,0.43
2018-12-04T01:11:32.666Z,0.63
2018-12-04T01:13:59.607Z,0.40
2018-12-04T01:16:26.387Z,0.80
2018-12-04T01:18:53.222Z,0.40
2018-12-04T01:21:19.951Z,0.57
2018-12-04T01:23:46.630Z,0.40
2018-12-04T01:26:13.327Z,0.50
2018-12-04T01:28:40.119Z,0.53
2018-12-04T01:31:06.860Z,0.43
2018-12-04T01:33:33.637Z,0.53
2018-12-04T01:36:00.359Z,0.60
2018-12-04T01:38:27.524Z,0.50
2018-12-04T01:40:54.422Z,0.70
2018-12-04T01:43:21.186Z,0.50
2018-12-04T01:45:48.129Z,0.47
2018-12-04T01:48:14.847Z,0.40
2018-12-04T01:50:41.564Z,0.60
2018-12-04T01:53:08.325Z,0.50
2018-12-04T01:55:35.091Z,0.30
2018-12-04T01:58:01.839Z,0.40
2018-12-04T02:00:28.623Z,0.60
2018-12-04T02:02:55.508Z,0.80
2018-12-04T02:07:54.058Z,0.60
2018-12-04T02:10:20.837Z,0.40
2018-12-04T02:12:47.583Z,0.60
2018-12-04T02:15:14.328Z,0.60
2018-12-04T02:17:41.009Z,0.60
2018-12-04T02:20:07.713Z,0.60
2018-12-04T02:22:34.414Z,0.60
2018-12-04T02:25:01.124Z,0.70
2018-12-04T02:27:27.858Z,0.30
2018-12-04T02:29:54.667Z,0.70
2018-12-04T02:32:21.609Z,0.67
2018-12-04T02:34:48.405Z,0.60
2018-12-04T02:37:15.134Z,0.70
2018-12-04T02:39:41.961Z,0.70
2018-12-04T02:42:08.835Z,0.70
2018-12-04T02:44:35.518Z,0.70
2018-12-04T02:47:02.227Z,0.60
2018-12-04T02:49:28.906Z,0.70
2018-12-04T02:51:55.662Z,0.80
2018-12-04T02:54:22.525Z,0.40
2018-12-04T02:56:49.438Z,0.90
2018-12-04T02:59:16.386Z,0.70
2018-12-04T03:01:43.305Z,0.80
2018-12-04T03:04:10.457Z,1.00
2018-12-04T03:06:37.180Z,0.90
2018-12-04T03:09:03.960Z,0.63
2018-12-04T03:11:30.728Z,0.57
2018-12-04T03:13:57.451Z,0.40
2018-12-04T03:16:24.238Z,0.73
2018-12-04T03:18:50.913Z,0.60
2018-12-04T03:21:17.631Z,0.77
2018-12-04T03:23:44.340Z,0.87
2018-12-04T03:26:11.071Z,0.63
2018-12-04T03:28:37.844Z,0.50
2018-12-04T03:31:04.563Z,0.60
2018-12-04T03:33:31.326Z,0.80
2018-12-04T03:35:58.097Z,0.60
2018-12-04T03:38:25.110Z,0.80
2018-12-04T03:40:51.869Z,0.80
2018-12-04T03:43:18.629Z,0.80
2018-12-04T03:45:45.356Z,0.60
2018-12-04T03:48:12.075Z,1.07
2018-12-04T03:50:38.785Z,0.70
2018-12-04T03:53:05.528Z,0.90
2018-12-04T03:55:32.377Z,0.80
2018-12-04T03:57:59.236Z,0.53
2018-12-04T04:00:26.000Z,1.07
2018-12-04T04:02:52.710Z,0.70
2018-12-04T04:05:19.572Z,0.90
2018-12-04T04:07:46.478Z,1.00
2018-12-04T04:10:13.318Z,0.60
2018-12-04T04:12:40.224Z,0.70
2018-12-04T04:15:06.925Z,0.67
2018-12-04T04:17:33.827Z,0.60
2018-12-04T04:20:00.723Z,0.80
2018-12-04T04:22:27.523Z,0.73
2018-12-04T04:24:54.211Z,0.50
2018-12-04T04:27:20.955Z,0.70
2018-12-04T04:29:47.746Z,0.80
2018-12-04T04:32:14.501Z,0.70
2018-12-04T04:34:41.268Z,0.77
2018-12-04T04:37:07.962Z,0.83
2018-12-04T04:39:34.693Z,0.73
2018-12-04T04:42:01.427Z,0.60
2018-12-04T04:44:28.205Z,0.60
2018-12-04T04:46:54.937Z,0.80
2018-12-04T04:49:21.912Z,0.70
2018-12-04T04:51:48.615Z,0.80
2018-12-04T04:54:15.366Z,0.53
2018-12-04T04:56:42.144Z,0.70
2018-12-04T04:59:08.894Z,0.67
2018-12-04T05:01:35.679Z,0.83
2018-12-04T05:04:02.463Z,0.80
2018-12-04T05:06:29.338Z,0.60
2018-12-04T05:08:56.118Z,0.60
2018-12-04T05:11:22.890Z,0.80
2018-12-04T05:13:49.587Z,0.70
2018-12-04T05:16:16.316Z,0.70
2018-12-04T05:18:44.329Z,0.53
2018-12-04T05:21:11.072Z,0.73
2018-12-04T05:23:37.903Z,0.70
2018-12-04T05:26:04.961Z,0.70
2018-12-04T05:28:31.732Z,1.20
2018-12-04T05:30:58.449Z,0.97
2018-12-04T05:33:25.465Z,0.80
2018-12-04T05:35:52.253Z,0.60
2018-12-04T05:38:18.947Z,0.73
2018-12-04T05:40:45.635Z,0.90
2018-12-04T05:43:12.643Z,0.70
2018-12-04T05:45:39.558Z,0.87
2018-12-04T05:48:06.327Z,0.80
2018-12-04T05:50:33.089Z,0.70
2018-12-04T05:52:59.865Z,0.90
2018-12-04T05:55:26.745Z,1.20
2018-12-04T05:57:53.505Z,0.70
2018-12-04T06:00:20.219Z,0.83
2018-12-04T06:02:51.881Z,0.47
2018-12-04T06:05:18.805Z,0.83
2018-12-04T06:07:45.679Z,0.90
2018-12-04T06:10:12.543Z,0.60
2018-12-04T06:12:39.448Z,0.90
2018-12-04T06:15:06.160Z,0.87
2018-12-04T06:17:32.935Z,0.70
2018-12-04T06:19:59.670Z,1.07
2018-12-04T06:22:26.646Z,0.70
2018-12-04T06:24:53.692Z,0.80
2018-12-04T06:27:20.426Z,1.00
2018-12-04T06:29:47.130Z,0.93
2018-12-04T06:32:13.858Z,0.37
2018-12-04T06:34:40.712Z,0.80
2018-12-04T06:37:07.471Z,0.90
2018-12-04T06:39:34.163Z,0.70
2018-12-04T06:42:00.866Z,0.93
2018-12-04T06:44:27.812Z,0.67
2018-12-04T06:46:54.669Z,0.90
2018-12-04T06:49:21.435Z,0.90
2018-12-04T06:51:48.220Z,0.80
2018-12-04T06:54:14.917Z,1.10
2018-12-04T06:56:41.877Z,0.90
2018-12-04T06:59:08.671Z,1.00
2018-12-04T07:01:35.471Z,0.80
2018-12-04T07:04:02.229Z,0.80
2018-12-04T07:06:28.972Z,0.80
2018-12-04T07:08:55.777Z,0.90
2018-12-04T07:11:22.543Z,1.00
2018-12-04T07:13:49.541Z,1.00
2018-12-04T07:16:16.452Z,0.93
2018-12-04T07:18:43.349Z,1.20
2018-12-04T07:21:10.167Z,0.90
2018-12-04T07:23:37.183Z,1.00
2018-12-04T07:26:04.139Z,0.90
2018-12-04T07:28:31.030Z,1.20
2018-12-04T07:30:57.901Z,1.07
2018-12-04T07:33:24.756Z,1.57
2018-12-04T07:35:51.574Z,1.17
2018-12-04T07:38:18.337Z,1.30
2018-12-04T07:40:45.194Z,1.90
2018-12-04T07:43:12.271Z,1.23
2018-12-04T07:45:39.286Z,1.67
2018-12-04T07:48:06.114Z,1.50
2018-12-04T07:50:32.921Z,1.93
2018-12-04T07:52:59.704Z,1.60
2018-12-04T07:55:26.529Z,1.77
2018-12-04T07:57:53.300Z,1.70
2018-12-04T08:00:20.050Z,1.97
2018-12-04T08:02:46.780Z,1.67
2018-12-04T08:05:13.554Z,2.10
2018-12-04T08:07:40.620Z,1.47
2018-12-04T08:10:07.417Z,1.77
2018-12-04T08:12:34.266Z,1.63
2018-12-04T08:15:00.998Z,2.07
2018-12-04T08:17:27.909Z,1.50
2018-12-04T08:19:55.100Z,1.80
2018-12-04T08:22:21.877Z,1.70
2018-12-04T08:24:48.629Z,1.37
2018-12-04T08:27:15.473Z,1.83
2018-12-04T08:29:42.237Z,1.30
2018-12-04T08:32:09.952Z,2.03
2018-12-04T08:34:36.883Z,1.60
2018-12-04T08:37:03.671Z,1.93
2018-12-04T08:39:30.638Z,1.73
2018-12-04T08:41:57.392Z,1.77
2018-12-04T08:44:24.105Z,1.90
2018-12-04T08:46:50.820Z,1.60
2018-12-04T08:49:17.870Z,2.00
2018-12-04T08:51:44.957Z,1.77
2018-12-04T08:54:11.765Z,1.87
2018-12-04T08:56:38.503Z,1.50
2018-12-04T08:59:05.343Z,1.60
2018-12-04T09:01:32.123Z,1.70
2018-12-04T09:03:59.252Z,1.90
2018-12-04T09:06:28.453Z,1.67
2018-12-04T09:08:55.525Z,1.80
2018-12-04T09:11:22.537Z,1.93
2018-12-04T09:13:49.339Z,2.10
2018-12-04T09:16:16.578Z,1.93
2018-12-04T09:18:43.473Z,1.80
2018-12-04T09:21:10.336Z,2.07
2018-12-04T09:23:37.343Z,1.87
2018-12-04T09:26:04.275Z,2.53
2018-12-04T09:28:31.107Z,2.50
2018-12-04T09:30:58.301Z,2.00
2018-12-04T09:33:25.109Z,2.73
2018-12-04T09:35:51.919Z,2.87
2018-12-04T09:38:18.808Z,2.30
2018-12-04T09:40:46.042Z,2.47
2018-12-04T09:43:12.967Z,2.60
2018-12-04T09:45:39.715Z,2.23
2018-12-04T09:48:06.486Z,2.37
2018-12-04T09:50:33.295Z,2.00
2018-12-04T09:53:00.239Z,2.17
2018-12-04T09:55:27.026Z,2.47
2018-12-04T09:57:53.814Z,1.93
2018-12-04T10:00:20.788Z,2.40
2018-12-04T10:02:47.658Z,2.37
2018-12-04T10:05:14.428Z,2.00
2018-12-04T10:07:41.312Z,2.47
2018-12-04T10:10:08.001Z,2.27
2018-12-04T10:12:34.800Z,1.83
2018-12-04T10:15:01.546Z,1.93
2018-12-04T10:17:29.014Z,1.93
2018-12-04T10:19:55.749Z,2.10
2018-12-04T10:22:22.627Z,1.93
2018-12-04T10:24:49.693Z,1.60
2018-12-04T10:27:16.479Z,2.03
2018-12-04T10:29:43.432Z,1.70
2018-12-04T10:32:10.381Z,1.83
2018-12-04T10:34:37.206Z,2.00
2018-12-04T10:37:03.988Z,1.73
2018-12-04T10:39:30.791Z,1.63
2018-12-04T10:41:57.579Z,2.13
2018-12-04T10:44:24.681Z,1.57
2018-12-04T10:46:51.692Z,1.73
2018-12-04T10:49:18.538Z,1.67
2018-12-04T10:51:45.422Z,1.90
2018-12-04T10:54:12.263Z,1.90
2018-12-04T10:56:39.422Z,1.77
2018-12-04T10:59:06.226Z,1.80
2018-12-04T11:01:38.626Z,1.67
2018-12-04T11:04:05.498Z,1.40
2018-12-04T11:06:32.456Z,1.57
2018-12-04T11:09:04.323Z,1.73
2018-12-04T11:11:31.200Z,1.70
2018-12-04T11:13:57.934Z,1.67
2018-12-04T11:16:24.908Z,1.80
2018-12-04T11:18:51.715Z,1.57
2018-12-04T11:21:18.530Z,1.40
2018-12-04T11:23:45.250Z,1.40
2018-12-04T11:26:12.034Z,1.33
2018-12-04T11:28:39.096Z,1.47
2018-12-04T11:31:05.829Z,1.50
2018-12-04T11:33:32.677Z,1.50
2018-12-04T11:35:59.466Z,1.60
2018-12-04T11:38:26.218Z,1.60
2018-12-04T11:40:53.387Z,1.33
2018-12-04T11:43:20.113Z,1.67
2018-12-04T11:45:46.838Z,1.30
2018-12-04T11:48:13.643Z,1.50
2018-12-04T11:50:40.536Z,1.40
2018-12-04T11:53:07.382Z,1.40
2018-12-04T11:55:34.108Z,1.40
2018-12-04T11:58:01.085Z,0.97
2018-12-04T12:00:32.821Z,1.30
2018-12-04T12:02:59.563Z,1.17
2018-12-04T12:05:26.310Z,1.70
2018-12-04T12:07:53.233Z,1.50
2018-12-04T12:10:19.912Z,0.97
2018-12-04T12:12:46.622Z,1.50
2018-12-04T12:15:17.972Z,0.90
2018-12-04T12:17:42.305Z,1.00
2018-12-04T12:20:09.047Z,1.20
2018-12-04T12:22:35.830Z,1.00
2018-12-04T12:25:02.854Z,0.80
2018-12-04T12:27:29.803Z,0.90
2018-12-04T12:29:56.571Z,1.50
2018-12-04T12:32:23.352Z,1.00
2018-12-04T12:34:50.078Z,1.10
2018-12-04T12:37:17.249Z,1.10
2018-12-04T12:39:44.262Z,1.40
2018-12-04T12:42:11.093Z,1.33
2018-12-04T12:44:38.451Z,1.13
2018-12-04T12:47:05.379Z,1.20
2018-12-04T12:49:32.303Z,1.03
2018-12-04T12:51:59.111Z,1.00
2018-12-04T12:54:25.825Z,1.10
2018-12-04T12:56:52.898Z,0.80
2018-12-04T12:59:19.961Z,1.10
2018-12-04T13:01:46.776Z,0.93
2018-12-04T13:04:13.580Z,1.13
2018-12-04T13:06:40.376Z,1.10
2018-12-04T13:09:07.141Z,1.00
2018-12-04T13:11:33.947Z,1.30
2018-12-04T13:14:01.035Z,1.47
2018-12-04T13:16:27.904Z,0.90
2018-12-04T13:18:54.675Z,1.10
2018-12-04T13:21:21.561Z,1.20
2018-12-04T13:23:48.377Z,1.10
2018-12-04T13:26:15.283Z,1.03
2018-12-04T13:28:42.127Z,1.10
2018-12-04T13:31:09.153Z,1.30
2018-12-04T13:33:35.929Z,1.00
2018-12-04T13:36:02.761Z,0.90
2018-12-04T13:38:29.652Z,1.30
2018-12-04T13:40:56.354Z,0.93
2018-12-04T13:43:23.168Z,1.23
2018-12-04T13:45:49.956Z,1.13
2018-12-04T13:48:16.738Z,0.87
2018-12-04T13:50:43.686Z,0.70
2018-12-04T13:53:10.698Z,1.00
2018-12-04T13:55:37.657Z,1.07
2018-12-04T13:58:04.693Z,1.00
2018-12-04T14:00:31.518Z,0.90
2018-12-04T14:02:58.350Z,1.00
2018-12-04T14:05:25.239Z,1.00
2018-12-04T14:07:52.298Z,0.97
2018-12-04T14:10:19.204Z,0.77
2018-12-04T14:12:46.064Z,0.87
2018-12-04T14:15:12.852Z,1.00
2018-12-04T14:17:39.961Z,1.00
2018-12-04T14:20:07.197Z,0.87
2018-12-04T14:22:34.081Z,0.83
2018-12-04T14:25:00.894Z,0.97
2018-12-04T14:27:27.618Z,1.20
2018-12-04T14:29:54.558Z,0.90
2018-12-04T14:32:21.428Z,0.83
2018-12-04T14:34:48.462Z,0.80
2018-12-04T14:37:15.343Z,1.20
2018-12-04T14:39:42.297Z,1.00
2018-12-04T14:42:09.257Z,1.03
2018-12-04T14:44:36.645Z,0.97
2018-12-04T14:47:04.465Z,0.87
2018-12-04T14:49:31.252Z,1.10
2018-12-04T14:51:58.271Z,1.13
2018-12-04T14:54:25.185Z,0.80
2018-12-04T14:56:52.086Z,0.90
2018-12-04T14:59:19.023Z,1.10
2018-12-04T15:01:45.892Z,1.20
2018-12-04T15:04:12.920Z,1.00
2018-12-04T15:06:40.141Z,1.10
2018-12-04T15:09:07.280Z,0.80
2018-12-04T15:11:34.116Z,1.03
2018-12-04T15:14:01.010Z,0.97
2018-12-04T15:16:28.053Z,0.90
2018-12-04T15:18:55.374Z,1.00
2018-12-04T15:21:22.548Z,1.10
2018-12-04T15:23:49.548Z,1.17
2018-12-04T15:26:16.451Z,1.00
2018-12-04T15:28:43.360Z,1.00
2018-12-04T15:31:10.154Z,0.93
2018-12-04T15:33:37.061Z,1.27
2018-12-04T15:36:03.950Z,1.07
2018-12-04T15:38:31.163Z,1.20
2018-12-04T15:40:58.637Z,1.37
2018-12-04T15:43:25.490Z,1.30
2018-12-04T15:45:52.529Z,1.43
2018-12-04T15:48:19.491Z,1.27
2018-12-04T15:50:47.214Z,1.63
2018-12-04T15:53:14.371Z,1.83
2018-12-04T15:55:41.256Z,1.70
2018-12-04T15:58:08.082Z,1.73
2018-12-04T16:00:34.852Z,1.37
2018-12-04T16:03:01.569Z,2.00
2018-12-04T16:05:28.400Z,1.70
2018-12-04T16:07:55.247Z,1.50
2018-12-04T16:10:21.967Z,2.10
2018-12-04T16:12:48.757Z,1.70
2018-12-04T16:15:15.499Z,1.60
2018-12-04T16:17:42.353Z,1.87
2018-12-04T16:20:09.203Z,1.30
2018-12-04T16:22:36.024Z,1.53
2018-12-04T16:25:03.093Z,1.60
2018-12-04T16:27:30.158Z,1.70
2018-12-04T16:29:57.219Z,1.13
2018-12-04T16:32:24.114Z,1.10
2018-12-04T16:34:51.002Z,1.70
2018-12-04T16:37:17.779Z,1.33
2018-12-04T16:39:44.754Z,1.47
2018-12-04T16:42:11.833Z,1.70
2018-12-04T16:44:38.700Z,1.30
2018-12-04T16:47:05.468Z,1.90
2018-12-04T16:49:32.239Z,1.90
2018-12-04T16:51:59.040Z,1.50
2018-12-04T16:54:25.796Z,1.43
2018-12-04T16:56:52.608Z,1.63
2018-12-04T16:59:19.631Z,1.73
2018-12-04T17:01:46.506Z,1.50
2018-12-04T17:04:13.333Z,1.30
2018-12-04T17:06:40.060Z,1.47
2018-12-04T17:09:06.793Z,1.80
2018-12-04T17:11:33.707Z,1.67
2018-12-04T17:14:00.986Z,1.73
2018-12-04T17:16:27.768Z,1.80
2018-12-04T17:18:54.602Z,1.80
2018-12-04T17:21:21.418Z,1.37
2018-12-04T17:23:48.114Z,1.43
2018-12-04T17:26:15.050Z,2.03
2018-12-04T17:28:41.932Z,1.90
2018-12-04T17:31:08.750Z,2.10
2018-12-04T17:33:35.668Z,1.97
2018-12-04T17:36:02.453Z,1.93
2018-12-04T17:38:29.417Z,1.80
2018-12-04T17:40:56.174Z,2.70
2018-12-04T17:43:22.918Z,2.03
2018-12-04T17:45:49.647Z,2.10
2018-12-04T17:48:16.516Z,2.00
2018-12-04T17:50:43.246Z,2.10
2018-12-04T17:53:10.078Z,2.03
2018-12-04T17:55:36.879Z,2.17
2018-12-04T17:58:03.609Z,2.10
2018-12-04T18:00:30.383Z,2.07
2018-12-04T18:02:57.081Z,2.00
2018-12-04T18:05:24.031Z,2.20
2018-12-04T18:07:50.913Z,2.20
2018-12-04T18:10:17.785Z,2.20
2018-12-04T18:12:44.555Z,1.90
2018-12-04T18:15:11.475Z,2.00
2018-12-04T18:17:38.379Z,2.10
2018-12-04T18:20:05.313Z,1.87
2018-12-04T18:22:32.151Z,2.30
2018-12-04T18:24:58.920Z,1.97
2018-12-04T18:27:25.635Z,2.27
2018-12-04T18:29:53.015Z,2.20
2018-12-04T18:32:20.060Z,2.23
2018-12-04T18:34:46.843Z,2.20
2018-12-04T18:37:13.561Z,2.20
2018-12-04T18:39:40.263Z,1.87
2018-12-04T18:42:07.128Z,2.03
2018-12-04T18:44:33.878Z,2.43
2018-12-04T18:47:00.589Z,2.10
2018-12-04T18:49:27.317Z,2.17
2018-12-04T18:51:54.023Z,2.20
2018-12-04T18:54:20.841Z,2.30
2018-12-04T18:56:47.649Z,2.10
2018-12-04T18:59:14.377Z,2.40
2018-12-04T19:01:41.607Z,2.90
2018-12-04T19:04:08.417Z,2.30
2018-12-04T19:06:35.425Z,2.50
2018-12-04T19:09:02.419Z,2.37
2018-12-04T19:11:29.210Z,2.53
2018-12-04T19:13:55.924Z,2.30
2018-12-04T19:16:22.660Z,2.53
2018-12-04T19:18:49.454Z,2.87
2018-12-04T19:21:16.157Z,2.57
2018-12-04T19:23:43.108Z,2.20
2018-12-04T19:26:09.986Z,2.67
2018-12-04T19:28:36.748Z,2.60
2018-12-04T19:31:03.778Z,2.73
2018-12-04T19:33:30.744Z,2.33
2018-12-04T19:35:57.479Z,3.63
2018-12-04T19:38:24.192Z,2.77
2018-12-04T19:40:51.185Z,3.20
2018-12-04T19:43:19.855Z,2.67
2018-12-04T19:45:46.809Z,2.90
2018-12-04T19:48:13.750Z,2.83
2018-12-04T19:50:40.555Z,2.80
2018-12-04T19:53:07.414Z,3.27
2018-12-04T19:55:34.237Z,3.00
2018-12-04T19:58:01.368Z,3.00
2018-12-04T20:00:28.264Z,3.53
2018-12-04T20:02:55.153Z,3.37
2018-12-04T20:05:21.906Z,3.47
2018-12-04T20:07:48.647Z,3.53
2018-12-04T20:10:15.378Z,3.77
2018-12-04T20:12:42.209Z,3.13
2018-12-04T20:15:09.102Z,3.20
2018-12-04T20:17:35.868Z,3.10
2018-12-04T20:20:02.817Z,3.30
2018-12-04T20:22:29.579Z,3.00
2018-12-04T20:24:56.275Z,3.73
2018-12-04T20:27:23.227Z,3.57
2018-12-04T20:29:49.976Z,3.07
2018-12-04T20:32:16.742Z,3.80
2018-12-04T20:34:43.806Z,3.27
2018-12-04T20:37:11.571Z,3.87
2018-12-04T20:39:38.706Z,3.90
2018-12-04T20:42:08.395Z,3.90
2018-12-04T20:44:34.194Z,4.13
2018-12-04T20:47:01.057Z,3.53
2018-12-04T20:49:28.069Z,3.83
2018-12-04T20:51:55.133Z,4.30
2018-12-04T20:54:22.021Z,3.73
2018-12-04T20:56:48.942Z,4.00
2018-12-04T20:59:15.684Z,3.93
2018-12-04T21:01:42.428Z,3.83
2018-12-04T21:04:09.550Z,3.77
2018-12-04T21:06:36.377Z,3.57
2018-12-04T21:09:03.515Z,4.33
2018-12-04T21:11:30.385Z,4.13
2018-12-04T21:13:57.342Z,3.80
2018-12-04T21:16:24.335Z,3.70
2018-12-04T21:18:51.121Z,3.80
2018-12-04T21:21:17.932Z,3.73
2018-12-04T21:23:44.858Z,4.40
2018-12-04T21:26:11.576Z,3.70
2018-12-04T21:28:40.350Z,3.67
2018-12-04T21:31:12.772Z,3.70
2018-12-04T21:33:45.136Z,3.80
2018-12-04T21:36:17.572Z,3.87
2018-12-04T21:38:49.929Z,4.10
2018-12-04T21:41:22.565Z,3.73
2018-12-04T21:43:55.054Z,3.70
2018-12-04T21:46:27.451Z,3.20
2018-12-04T21:48:54.220Z,4.03
2018-12-04T21:51:21.107Z,4.27
2018-12-04T21:53:47.942Z,4.23
2018-12-04T21:56:14.659Z,3.77
2018-12-04T21:58:41.365Z,3.70
2018-12-04T22:01:08.225Z,3.90
2018-12-04T22:03:34.999Z,4.20
2018-12-04T22:06:02.279Z,3.97
2018-12-04T22:08:29.114Z,3.73
2018-12-04T22:10:55.992Z,3.57
2018-12-04T22:13:22.676Z,4.63
2018-12-04T22:15:49.458Z,3.77
2018-12-04T22:18:16.356Z,3.63
2018-12-04T22:20:43.136Z,3.60
2018-12-04T22:23:09.996Z,4.27
2018-12-04T22:25:36.962Z,3.90
2018-12-04T22:28:04.029Z,3.87
2018-12-04T22:30:32.337Z,3.97
2018-12-04T22:33:00.542Z,3.27
2018-12-04T22:35:28.269Z,4.10
2018-12-04T22:37:56.286Z,4.07
2018-12-04T22:40:23.029Z,3.63
2018-12-04T22:42:51.241Z,3.30
2018-12-04T22:45:23.957Z,4.00
2018-12-04T22:47:51.790Z,3.70
2018-12-04T22:50:20.580Z,4.07
2018-12-04T22:52:48.163Z,3.90
2018-12-04T22:55:15.584Z,4.90
2018-12-04T22:57:43.497Z,3.67
2018-12-04T23:00:11.449Z,4.03
2018-12-04T23:02:40.167Z,3.60
2018-12-04T23:05:08.546Z,3.73
2018-12-04T23:07:35.659Z,4.20
2018-12-04T23:10:03.855Z,4.13
2018-12-04T23:12:32.241Z,3.90
2018-12-04T23:15:00.665Z,3.70
2018-12-04T23:17:29.051Z,3.80
2018-12-04T23:19:56.739Z,3.50
2018-12-04T23:22:24.641Z,4.37
2018-12-04T23:24:51.949Z,4.17
2018-12-04T23:27:19.285Z,4.07
2018-12-04T23:29:46.923Z,3.67
2018-12-04T23:32:15.903Z,3.90
2018-12-04T23:34:43.295Z,3.27
2018-12-04T23:37:10.830Z,4.00
2018-12-04T23:39:38.798Z,3.73
2018-12-04T23:42:05.896Z,3.30
2018-12-04T23:44:33.617Z,4.20
2018-12-04T23:47:01.184Z,3.63
2018-12-04T23:49:29.735Z,3.60
2018-12-04T23:51:58.070Z,3.60
2018-12-04T23:54:25.870Z,3.77
2018-12-04T23:56:53.554Z,3.93
2018-12-04T23:59:20.440Z,3.97
